sensor_id;sensor_type;location;lat;lon;timestamp;pressure;altitude;pressure_sealevel;temperature;humidity
11038;BME280;5572;49.540;11.932;2023-03-01T00:01:28;97764.41;;;-1.53;100.00
11038;BME280;5572;49.540;11.932;2023-03-01T00:03:56;97760.31;;;-1.56;100.00
11038;BME280;5572;49.540;11.932;2023-03-01T00:06:23;97760.69;;;-1.59;100.00
11038;BME280;5572;49.540;11.932;2023-03-01T00:08:50;97753.81;;;-1.53;100.00
11038;BME280;5572;49.540;11.932;2023-03-01T00:11:19;97757.66;;;-1.56;100.00
11038;BME280;5572;49.540;11.932;2023-03-01T00:13:50;97754.25;;;-1.50;100.00
11038;BME280;5572;49.540;11.932;2023-03-01T00:16:20;97751.25;;;-1.47;100.00
11038;BME280;5572;49.540;11.932;2023-03-01T00:18:47;97755.00;;;-1.41;100.00
11038;BME280;5572;49.540;11.932;2023-03-01T00:21:15;97748.22;;;-1.44;100.00
11038;BME280;5572;49.540;11.932;2023-03-01T00:23:42;97760.84;;;-1.46;100.00
11038;BME280;5572;49.540;11.932;2023-03-01T00:26:10;97761.22;;;-1.63;100.00
11038;BME280;5572;49.540;11.932;2023-03-01T00:28:36;97762.22;;;-1.64;100.00
11038;BME280;5572;49.540;11.932;2023-03-01T00:31:06;97756.56;;;-1.61;100.00
11038;BME280;5572;49.540;11.932;2023-03-01T00:33:34;97755.56;;;-1.60;100.00
11038;BME280;5572;49.540;11.932;2023-03-01T00:36:02;97745.34;;;-1.63;100.00
11038;BME280;5572;49.540;11.932;2023-03-01T00:38:30;97748.09;;;-1.71;100.00
11038;BME280;5572;49.540;11.932;2023-03-01T00:41:03;97746.00;;;-1.75;100.00
11038;BME280;5572;49.540;11.932;2023-03-01T00:43:30;97737.28;;;-1.70;100.00
11038;BME280;5572;49.540;11.932;2023-03-01T00:46:01;97741.22;;;-1.66;100.00
11038;BME280;5572;49.540;11.932;2023-03-01T00:48:29;97744.03;;;-1.67;100.00
11038;BME280;5572;49.540;11.932;2023-03-01T00:50:56;97742.16;;;-1.73;100.00
11038;BME280;5572;49.540;11.932;2023-03-01T00:53:23;97737.41;;;-1.77;100.00
11038;BME280;5572;49.540;11.932;2023-03-01T00:55:50;97730.25;;;-1.77;100.00
11038;BME280;5572;49.540;11.932;2023-03-01T00:58:17;97733.91;;;-1.78;100.00
11038;BME280;5572;49.540;11.932;2023-03-01T01:00:44;97726.25;;;-1.73;100.00
11038;BME280;5572;49.540;11.932;2023-03-01T01:03:10;97722.03;;;-1.68;100.00
11038;BME280;5572;49.540;11.932;2023-03-01T01:05:38;97732.09;;;-1.77;100.00
11038;BME280;5572;49.540;11.932;2023-03-01T01:08:05;97722.41;;;-1.85;100.00
11038;BME280;5572;49.540;11.932;2023-03-01T01:10:33;97719.41;;;-1.82;100.00
11038;BME280;5572;49.540;11.932;2023-03-01T01:13:00;97721.41;;;-1.84;100.00
11038;BME280;5572;49.540;11.932;2023-03-01T01:15:27;97720.50;;;-1.91;100.00
11038;BME280;5572;49.540;11.932;2023-03-01T01:17:54;97715.13;;;-1.97;100.00
11038;BME280;5572;49.540;11.932;2023-03-01T01:20:21;97715.22;;;-1.91;100.00
11038;BME280;5572;49.540;11.932;2023-03-01T01:22:49;97719.50;;;-2.04;100.00
11038;BME280;5572;49.540;11.932;2023-03-01T01:25:16;97713.72;;;-1.93;100.00
11038;BME280;5572;49.540;11.932;2023-03-01T01:27:43;97712.47;;;-1.97;100.00
11038;BME280;5572;49.540;11.932;2023-03-01T01:30:12;97716.22;;;-2.06;100.00
11038;BME280;5572;49.540;11.932;2023-03-01T01:32:39;97720.59;;;-2.13;100.00
11038;BME280;5572;49.540;11.932;2023-03-01T01:35:06;97719.03;;;-2.08;100.00
11038;BME280;5572;49.540;11.932;2023-03-01T01:37:36;97706.91;;;-2.02;100.00
11038;BME280;5572;49.540;11.932;2023-03-01T01:40:05;97703.16;;;-2.08;100.00
11038;BME280;5572;49.540;11.932;2023-03-01T01:42:32;97702.59;;;-2.18;100.00
11038;BME280;5572;49.540;11.932;2023-03-01T01:45:32;97687.09;;;-2.06;100.00
11038;BME280;5572;49.540;11.932;2023-03-01T01:48:03;97693.56;;;-2.23;100.00
11038;BME280;5572;49.540;11.932;2023-03-01T01:50:31;97684.16;;;-2.11;100.00
11038;BME280;5572;49.540;11.932;2023-03-01T01:53:05;97672.69;;;-2.18;100.00
11038;BME280;5572;49.540;11.932;2023-03-01T01:55:37;97680.88;;;-2.13;100.00
11038;BME280;5572;49.540;11.932;2023-03-01T01:58:08;97669.72;;;-2.09;100.00
11038;BME280;5572;49.540;11.932;2023-03-01T02:00:36;97650.38;;;-1.95;100.00
11038;BME280;5572;49.540;11.932;2023-03-01T02:03:08;97663.34;;;-2.00;100.00
11038;BME280;5572;49.540;11.932;2023-03-01T02:05:39;97650.28;;;-2.01;100.00
11038;BME280;5572;49.540;11.932;2023-03-01T02:08:11;97645.53;;;-2.06;100.00
11038;BME280;5572;49.540;11.932;2023-03-01T02:10:40;97640.69;;;-2.02;100.00
11038;BME280;5572;49.540;11.932;2023-03-01T02:13:08;97637.13;;;-1.95;100.00
11038;BME280;5572;49.540;11.932;2023-03-01T02:15:36;97634.66;;;-1.96;100.00
11038;BME280;5572;49.540;11.932;2023-03-01T02:18:04;97630.53;;;-1.99;100.00
11038;BME280;5572;49.540;11.932;2023-03-01T02:20:35;97635.75;;;-1.91;100.00
11038;BME280;5572;49.540;11.932;2023-03-01T02:23:06;97628.38;;;-1.95;100.00
11038;BME280;5572;49.540;11.932;2023-03-01T02:25:39;97635.31;;;-2.09;100.00
11038;BME280;5572;49.540;11.932;2023-03-01T02:28:20;97635.41;;;-2.17;100.00
11038;BME280;5572;49.540;11.932;2023-03-01T02:30:49;97637.41;;;-2.04;100.00
11038;BME280;5572;49.540;11.932;2023-03-01T02:33:35;97634.06;;;-2.13;100.00
11038;BME280;5572;49.540;11.932;2023-03-01T02:36:05;97622.63;;;-2.13;100.00
11038;BME280;5572;49.540;11.932;2023-03-01T02:38:33;97623.94;;;-2.38;100.00
11038;BME280;5572;49.540;11.932;2023-03-01T02:41:00;97625.69;;;-2.45;100.00
11038;BME280;5572;49.540;11.932;2023-03-01T02:43:31;97618.09;;;-2.62;100.00
11038;BME280;5572;49.540;11.932;2023-03-01T02:46:03;97598.69;;;-2.55;100.00
11038;BME280;5572;49.540;11.932;2023-03-01T02:48:40;97598.75;;;-2.63;100.00
11038;BME280;5572;49.540;11.932;2023-03-01T02:51:13;97596.66;;;-2.53;100.00
11038;BME280;5572;49.540;11.932;2023-03-01T02:53:53;97601.28;;;-2.69;100.00
11038;BME280;5572;49.540;11.932;2023-03-01T02:56:21;97586.81;;;-2.59;100.00
11038;BME280;5572;49.540;11.932;2023-03-01T02:58:51;97581.06;;;-2.62;100.00
11038;BME280;5572;49.540;11.932;2023-03-01T03:01:19;97577.22;;;-2.60;100.00
11038;BME280;5572;49.540;11.932;2023-03-01T03:03:46;97567.94;;;-2.70;100.00
11038;BME280;5572;49.540;11.932;2023-03-01T03:06:13;97565.19;;;-2.62;100.00
11038;BME280;5572;49.540;11.932;2023-03-01T03:08:39;97550.41;;;-2.57;100.00
11038;BME280;5572;49.540;11.932;2023-03-01T03:11:06;97558.72;;;-2.60;100.00
11038;BME280;5572;49.540;11.932;2023-03-01T03:13:33;97554.06;;;-2.58;100.00
11038;BME280;5572;49.540;11.932;2023-03-01T03:16:02;97550.56;;;-2.58;100.00
11038;BME280;5572;49.540;11.932;2023-03-01T03:18:29;97560.34;;;-2.73;100.00
11038;BME280;5572;49.540;11.932;2023-03-01T03:20:56;97564.66;;;-2.72;100.00
11038;BME280;5572;49.540;11.932;2023-03-01T03:23:23;97536.78;;;-2.40;100.00
11038;BME280;5572;49.540;11.932;2023-03-01T03:25:50;97542.47;;;-2.71;100.00
11038;BME280;5572;49.540;11.932;2023-03-01T03:28:17;97559.06;;;-2.77;100.00
11038;BME280;5572;49.540;11.932;2023-03-01T03:31:11;97549.78;;;-2.73;100.00
11038;BME280;5572;49.540;11.932;2023-03-01T03:33:37;97556.06;;;-2.89;100.00
11038;BME280;5572;49.540;11.932;2023-03-01T03:36:20;97545.13;;;-3.00;100.00
11038;BME280;5572;49.540;11.932;2023-03-01T03:38:47;97535.66;;;-2.95;100.00
11038;BME280;5572;49.540;11.932;2023-03-01T03:41:15;97532.91;;;-3.01;100.00
11038;BME280;5572;49.540;11.932;2023-03-01T03:43:42;97532.72;;;-3.00;100.00
11038;BME280;5572;49.540;11.932;2023-03-01T03:46:11;97524.13;;;-2.87;100.00
11038;BME280;5572;49.540;11.932;2023-03-01T03:48:39;97507.16;;;-2.64;100.00
11038;BME280;5572;49.540;11.932;2023-03-01T03:51:08;97517.00;;;-2.58;100.00
11038;BME280;5572;49.540;11.932;2023-03-01T03:53:36;97501.13;;;-2.44;100.00
11038;BME280;5572;49.540;11.932;2023-03-01T03:56:02;97507.16;;;-2.50;100.00
11038;BME280;5572;49.540;11.932;2023-03-01T03:58:29;97503.78;;;-2.58;100.00
11038;BME280;5572;49.540;11.932;2023-03-01T04:00:57;97507.34;;;-2.65;100.00
11038;BME280;5572;49.540;11.932;2023-03-01T04:03:26;97507.91;;;-2.70;100.00
11038;BME280;5572;49.540;11.932;2023-03-01T04:05:52;97510.81;;;-2.79;100.00
11038;BME280;5572;49.540;11.932;2023-03-01T04:08:20;97507.47;;;-2.73;100.00
11038;BME280;5572;49.540;11.932;2023-03-01T04:10:48;97503.91;;;-2.66;100.00
11038;BME280;5572;49.540;11.932;2023-03-01T04:13:17;97501.41;;;-2.67;100.00
11038;BME280;5572;49.540;11.932;2023-03-01T04:15:45;97501.53;;;-2.75;100.00
11038;BME280;5572;49.540;11.932;2023-03-01T04:18:12;97499.78;;;-2.83;100.00
11038;BME280;5572;49.540;11.932;2023-03-01T04:20:41;97497.44;;;-2.78;100.00
11038;BME280;5572;49.540;11.932;2023-03-01T04:23:10;97487.19;;;-2.66;100.00
11038;BME280;5572;49.540;11.932;2023-03-01T04:25:39;97485.50;;;-2.53;100.00
11038;BME280;5572;49.540;11.932;2023-03-01T04:28:06;97486.72;;;-2.56;100.00
11038;BME280;5572;49.540;11.932;2023-03-01T04:30:33;97498.66;;;-2.45;100.00
11038;BME280;5572;49.540;11.932;2023-03-01T04:33:02;97482.00;;;-2.74;100.00
11038;BME280;5572;49.540;11.932;2023-03-01T04:35:29;97489.28;;;-2.62;100.00
11038;BME280;5572;49.540;11.932;2023-03-01T04:37:57;97484.06;;;-2.56;100.00
11038;BME280;5572;49.540;11.932;2023-03-01T04:40:24;97488.19;;;-2.67;100.00
11038;BME280;5572;49.540;11.932;2023-03-01T04:42:51;97499.22;;;-2.78;100.00
11038;BME280;5572;49.540;11.932;2023-03-01T04:45:17;97482.97;;;-2.61;100.00
11038;BME280;5572;49.540;11.932;2023-03-01T04:47:46;97497.31;;;-2.70;100.00
11038;BME280;5572;49.540;11.932;2023-03-01T04:50:15;97488.03;;;-2.80;100.00
11038;BME280;5572;49.540;11.932;2023-03-01T04:52:42;97496.50;;;-2.70;100.00
11038;BME280;5572;49.540;11.932;2023-03-01T04:55:11;97489.03;;;-2.81;100.00
11038;BME280;5572;49.540;11.932;2023-03-01T04:57:38;97489.84;;;-2.66;100.00
11038;BME280;5572;49.540;11.932;2023-03-01T05:00:06;97486.00;;;-2.78;100.00
11038;BME280;5572;49.540;11.932;2023-03-01T05:02:46;97485.19;;;-2.79;100.00
11038;BME280;5572;49.540;11.932;2023-03-01T05:05:14;97497.44;;;-2.78;100.00
11038;BME280;5572;49.540;11.932;2023-03-01T05:07:41;97505.63;;;-2.87;100.00
11038;BME280;5572;49.540;11.932;2023-03-01T05:10:08;97498.63;;;-2.80;100.00
11038;BME280;5572;49.540;11.932;2023-03-01T05:12:36;97496.44;;;-2.91;100.00
11038;BME280;5572;49.540;11.932;2023-03-01T05:15:04;97489.59;;;-2.86;100.00
11038;BME280;5572;49.540;11.932;2023-03-01T05:17:32;97475.19;;;-2.83;100.00
11038;BME280;5572;49.540;11.932;2023-03-01T05:19:59;97479.03;;;-2.86;100.00
11038;BME280;5572;49.540;11.932;2023-03-01T05:22:26;97480.47;;;-2.98;100.00
11038;BME280;5572;49.540;11.932;2023-03-01T05:24:52;97480.19;;;-3.03;100.00
11038;BME280;5572;49.540;11.932;2023-03-01T05:27:20;97476.75;;;-3.03;100.00
11038;BME280;5572;49.540;11.932;2023-03-01T05:29:49;97474.28;;;-3.05;100.00
11038;BME280;5572;49.540;11.932;2023-03-01T05:32:15;97461.69;;;-2.88;100.00
11038;BME280;5572;49.540;11.932;2023-03-01T05:34:42;97466.44;;;-2.98;100.00
11038;BME280;5572;49.540;11.932;2023-03-01T05:37:09;97482.28;;;-3.13;100.00
11038;BME280;5572;49.540;11.932;2023-03-01T05:39:36;97471.00;;;-3.07;100.00
11038;BME280;5572;49.540;11.932;2023-03-01T05:42:03;97471.47;;;-3.03;100.00
11038;BME280;5572;49.540;11.932;2023-03-01T05:44:30;97471.16;;;-3.08;100.00
11038;BME280;5572;49.540;11.932;2023-03-01T05:46:58;97472.09;;;-3.01;100.00
11038;BME280;5572;49.540;11.932;2023-03-01T05:49:24;97467.16;;;-3.04;100.00
11038;BME280;5572;49.540;11.932;2023-03-01T05:51:52;97468.91;;;-2.97;100.00
11038;BME280;5572;49.540;11.932;2023-03-01T05:54:19;97467.16;;;-3.04;100.00
11038;BME280;5572;49.540;11.932;2023-03-01T05:56:47;97456.31;;;-2.95;100.00
11038;BME280;5572;49.540;11.932;2023-03-01T05:59:13;97458.03;;;-3.02;100.00
11038;BME280;5572;49.540;11.932;2023-03-01T06:01:41;97461.69;;;-3.46;100.00
11038;BME280;5572;49.540;11.932;2023-03-01T06:04:09;97462.59;;;-3.39;100.00
11038;BME280;5572;49.540;11.932;2023-03-01T06:06:36;97465.16;;;-3.45;100.00
11038;BME280;5572;49.540;11.932;2023-03-01T06:09:03;97465.06;;;-3.52;100.00
11038;BME280;5572;49.540;11.932;2023-03-01T06:11:33;97453.03;;;-3.54;100.00
11038;BME280;5572;49.540;11.932;2023-03-01T06:14:00;97452.09;;;-3.61;100.00
11038;BME280;5572;49.540;11.932;2023-03-01T06:16:26;97454.38;;;-3.73;100.00
11038;BME280;5572;49.540;11.932;2023-03-01T06:18:53;97441.09;;;-3.50;100.00
11038;BME280;5572;49.540;11.932;2023-03-01T06:21:21;97436.81;;;-3.37;100.00
11038;BME280;5572;49.540;11.932;2023-03-01T06:23:47;97432.97;;;-3.49;100.00
11038;BME280;5572;49.540;11.932;2023-03-01T06:26:14;97421.97;;;-3.38;100.00
11038;BME280;5572;49.540;11.932;2023-03-01T06:28:42;97417.78;;;-3.33;100.00
11038;BME280;5572;49.540;11.932;2023-03-01T06:31:11;97419.84;;;-3.14;100.00
11038;BME280;5572;49.540;11.932;2023-03-01T06:33:38;97363.78;;;-1.57;100.00
11038;BME280;5572;49.540;11.932;2023-03-01T06:36:05;97372.59;;;-0.50;100.00
11038;BME280;5572;49.540;11.932;2023-03-01T06:38:33;97407.59;;;-0.27;100.00
11038;BME280;5572;49.540;11.932;2023-03-01T06:41:00;97398.84;;;0.50;100.00
11038;BME280;5572;49.540;11.932;2023-03-01T06:43:27;97433.00;;;0.27;100.00
11038;BME280;5572;49.540;11.932;2023-03-01T06:45:53;97452.00;;;0.11;100.00
11038;BME280;5572;49.540;11.932;2023-03-01T06:48:20;97436.84;;;0.89;100.00
11038;BME280;5572;49.540;11.932;2023-03-01T06:50:47;97458.31;;;0.75;100.00
11038;BME280;5572;49.540;11.932;2023-03-01T06:53:13;97472.16;;;1.29;100.00
11038;BME280;5572;49.540;11.932;2023-03-01T06:55:41;97469.97;;;2.07;100.00
11038;BME280;5572;49.540;11.932;2023-03-01T06:58:08;97473.84;;;2.66;100.00
11038;BME280;5572;49.540;11.932;2023-03-01T07:00:35;97547.47;;;1.62;100.00
11038;BME280;5572;49.540;11.932;2023-03-01T07:03:02;97525.81;;;2.63;100.00
11038;BME280;5572;49.540;11.932;2023-03-01T07:05:29;97522.44;;;2.74;100.00
11038;BME280;5572;49.540;11.932;2023-03-01T07:07:55;97554.94;;;2.34;100.00
11038;BME280;5572;49.540;11.932;2023-03-01T07:10:22;97576.75;;;2.18;100.00
11038;BME280;5572;49.540;11.932;2023-03-01T07:12:50;97578.69;;;2.42;100.00
11038;BME280;5572;49.540;11.932;2023-03-01T07:15:20;97558.53;;;3.08;100.00
11038;BME280;5572;49.540;11.932;2023-03-01T07:17:46;97588.31;;;3.53;100.00
11038;BME280;5572;49.540;11.932;2023-03-01T07:20:16;97578.31;;;3.85;100.00
11038;BME280;5572;49.540;11.932;2023-03-01T07:22:42;97644.22;;;3.31;100.00
11038;BME280;5572;49.540;11.932;2023-03-01T07:25:09;97629.81;;;3.56;100.00
11038;BME280;5572;49.540;11.932;2023-03-01T07:27:36;97630.25;;;3.95;100.00
11038;BME280;5572;49.540;11.932;2023-03-01T07:30:06;97627.44;;;4.44;100.00
11038;BME280;5572;49.540;11.932;2023-03-01T07:32:32;97684.59;;;3.71;100.00
11038;BME280;5572;49.540;11.932;2023-03-01T07:34:59;97791.53;;;2.14;100.00
11038;BME280;5572;49.540;11.932;2023-03-01T07:37:25;97742.78;;;3.45;100.00
11038;BME280;5572;49.540;11.932;2023-03-01T07:39:52;97808.97;;;1.71;100.00
11038;BME280;5572;49.540;11.932;2023-03-01T07:42:18;97776.78;;;2.88;100.00
11038;BME280;5572;49.540;11.932;2023-03-01T07:44:45;97778.91;;;3.47;100.00
11038;BME280;5572;49.540;11.932;2023-03-01T07:47:13;97727.13;;;4.75;100.00
11038;BME280;5572;49.540;11.932;2023-03-01T07:49:39;97824.78;;;4.06;100.00
11038;BME280;5572;49.540;11.932;2023-03-01T07:52:06;97832.22;;;4.04;100.00
11038;BME280;5572;49.540;11.932;2023-03-01T07:54:33;97837.59;;;3.73;100.00
11038;BME280;5572;49.540;11.932;2023-03-01T07:56:59;97833.38;;;3.53;100.00
11038;BME280;5572;49.540;11.932;2023-03-01T07:59:26;97823.56;;;3.78;100.00
11038;BME280;5572;49.540;11.932;2023-03-01T08:01:54;97892.66;;;3.37;100.00
11038;BME280;5572;49.540;11.932;2023-03-01T08:04:22;97921.78;;;2.69;100.00
11038;BME280;5572;49.540;11.932;2023-03-01T08:06:50;97890.53;;;4.20;100.00
11038;BME280;5572;49.540;11.932;2023-03-01T08:09:16;97989.47;;;2.03;100.00
11038;BME280;5572;49.540;11.932;2023-03-01T08:11:43;98020.53;;;1.77;100.00
11038;BME280;5572;49.540;11.932;2023-03-01T08:14:09;98071.91;;;1.31;100.00
11038;BME280;5572;49.540;11.932;2023-03-01T08:16:36;98120.00;;;1.23;100.00
11038;BME280;5572;49.540;11.932;2023-03-01T08:19:04;98145.94;;;0.73;100.00
11038;BME280;5572;49.540;11.932;2023-03-01T08:21:32;98161.69;;;1.16;100.00
11038;BME280;5572;49.540;11.932;2023-03-01T08:24:00;98178.72;;;0.94;100.00
11038;BME280;5572;49.540;11.932;2023-03-01T08:26:26;98163.28;;;1.10;100.00
11038;BME280;5572;49.540;11.932;2023-03-01T08:28:53;98181.34;;;1.36;100.00
11038;BME280;5572;49.540;11.932;2023-03-01T08:31:22;98188.63;;;1.48;100.00
11038;BME280;5572;49.540;11.932;2023-03-01T08:33:51;98190.63;;;1.67;100.00
11038;BME280;5572;49.540;11.932;2023-03-01T08:36:20;98185.13;;;1.48;100.00
11038;BME280;5572;49.540;11.932;2023-03-01T08:38:49;98212.41;;;1.29;100.00
11038;BME280;5572;49.540;11.932;2023-03-01T08:41:15;98213.19;;;1.23;100.00
11038;BME280;5572;49.540;11.932;2023-03-01T08:43:42;98219.50;;;1.64;100.00
11038;BME280;5572;49.540;11.932;2023-03-01T08:46:09;98215.63;;;1.66;100.00
11038;BME280;5572;49.540;11.932;2023-03-01T08:48:35;98218.25;;;2.27;100.00
11038;BME280;5572;49.540;11.932;2023-03-01T08:51:10;98120.09;;;3.99;100.00
11038;BME280;5572;49.540;11.932;2023-03-01T08:53:36;98207.75;;;1.85;100.00
11038;BME280;5572;49.540;11.932;2023-03-01T08:56:05;98201.91;;;2.03;100.00
11038;BME280;5572;49.540;11.932;2023-03-01T08:58:31;98199.06;;;2.45;100.00
11038;BME280;5572;49.540;11.932;2023-03-01T09:00:58;98228.91;;;2.61;100.00
11038;BME280;5572;49.540;11.932;2023-03-01T09:03:25;98210.00;;;2.56;100.00
11038;BME280;5572;49.540;11.932;2023-03-01T09:05:53;98203.31;;;2.86;100.00
11038;BME280;5572;49.540;11.932;2023-03-01T09:08:25;98192.09;;;3.10;100.00
11038;BME280;5572;49.540;11.932;2023-03-01T09:10:52;98233.06;;;2.70;100.00
11038;BME280;5572;49.540;11.932;2023-03-01T09:13:20;98231.25;;;2.83;100.00
11038;BME280;5572;49.540;11.932;2023-03-01T09:15:48;98239.44;;;2.75;100.00
11038;BME280;5572;49.540;11.932;2023-03-01T09:18:15;98254.34;;;2.57;100.00
11038;BME280;5572;49.540;11.932;2023-03-01T09:20:42;98248.22;;;3.36;100.00
11038;BME280;5572;49.540;11.932;2023-03-01T09:23:08;98270.94;;;2.93;100.00
11038;BME280;5572;49.540;11.932;2023-03-01T09:25:35;98288.09;;;2.71;100.00
11038;BME280;5572;49.540;11.932;2023-03-01T09:28:01;98301.34;;;2.92;100.00
11038;BME280;5572;49.540;11.932;2023-03-01T09:30:30;98263.25;;;3.37;100.00
11038;BME280;5572;49.540;11.932;2023-03-01T09:32:56;98269.69;;;3.68;100.00
11038;BME280;5572;49.540;11.932;2023-03-01T09:35:23;98255.69;;;3.59;100.00
11038;BME280;5572;49.540;11.932;2023-03-01T09:37:51;98314.44;;;3.34;100.00
11038;BME280;5572;49.540;11.932;2023-03-01T09:40:20;98313.63;;;3.46;100.00
11038;BME280;5572;49.540;11.932;2023-03-01T09:42:52;98274.78;;;3.50;100.00
11038;BME280;5572;49.540;11.932;2023-03-01T09:45:27;98323.63;;;3.25;100.00
11038;BME280;5572;49.540;11.932;2023-03-01T09:47:57;98311.47;;;3.09;100.00
11038;BME280;5572;49.540;11.932;2023-03-01T09:53:12;98341.69;;;4.08;100.00
11038;BME280;5572;49.540;11.932;2023-03-01T09:55:43;98272.47;;;4.50;100.00
11038;BME280;5572;49.540;11.932;2023-03-01T09:58:31;98308.13;;;3.80;100.00
11038;BME280;5572;49.540;11.932;2023-03-01T10:01:10;98284.28;;;3.78;100.00
11038;BME280;5572;49.540;11.932;2023-03-01T10:03:47;98312.28;;;3.89;100.00
11038;BME280;5572;49.540;11.932;2023-03-01T10:06:20;98316.38;;;4.17;100.00
11038;BME280;5572;49.540;11.932;2023-03-01T10:08:53;98308.75;;;4.40;100.00
11038;BME280;5572;49.540;11.932;2023-03-01T10:11:23;98326.03;;;3.73;100.00
11038;BME280;5572;49.540;11.932;2023-03-01T10:13:55;98327.72;;;3.93;100.00
11038;BME280;5572;49.540;11.932;2023-03-01T10:16:28;98309.91;;;4.83;100.00
11038;BME280;5572;49.540;11.932;2023-03-01T10:19:03;98332.84;;;4.33;100.00
11038;BME280;5572;49.540;11.932;2023-03-01T10:21:34;98345.63;;;4.06;100.00
11038;BME280;5572;49.540;11.932;2023-03-01T10:24:10;98326.63;;;4.72;100.00
11038;BME280;5572;49.540;11.932;2023-03-01T10:26:51;98308.44;;;4.80;100.00
11038;BME280;5572;49.540;11.932;2023-03-01T10:29:23;98323.59;;;5.12;100.00
11038;BME280;5572;49.540;11.932;2023-03-01T10:32:15;98364.75;;;4.48;100.00
11038;BME280;5572;49.540;11.932;2023-03-01T10:34:44;98371.97;;;4.47;100.00
11038;BME280;5572;49.540;11.932;2023-03-01T10:37:12;98373.84;;;5.29;100.00
11038;BME280;5572;49.540;11.932;2023-03-01T10:39:55;98412.75;;;4.36;100.00
11038;BME280;5572;49.540;11.932;2023-03-01T10:42:27;98427.56;;;4.58;100.00
11038;BME280;5572;49.540;11.932;2023-03-01T10:44:54;98382.63;;;4.86;100.00
11038;BME280;5572;49.540;11.932;2023-03-01T10:47:23;98437.44;;;4.71;100.00
11038;BME280;5572;49.540;11.932;2023-03-01T10:49:57;98450.38;;;5.19;100.00
11038;BME280;5572;49.540;11.932;2023-03-01T10:52:29;98383.34;;;5.82;100.00
11038;BME280;5572;49.540;11.932;2023-03-01T10:54:58;98392.00;;;5.21;100.00
11038;BME280;5572;49.540;11.932;2023-03-01T10:57:29;98382.91;;;5.28;100.00
11038;BME280;5572;49.540;11.932;2023-03-01T11:00:21;98379.56;;;5.90;100.00
11038;BME280;5572;49.540;11.932;2023-03-01T11:02:49;98401.66;;;5.35;100.00
11038;BME280;5572;49.540;11.932;2023-03-01T11:05:20;98369.97;;;6.06;100.00
11038;BME280;5572;49.540;11.932;2023-03-01T11:07:50;98354.94;;;5.99;100.00
11038;BME280;5572;49.540;11.932;2023-03-01T11:10:23;98385.97;;;5.89;100.00
11038;BME280;5572;49.540;11.932;2023-03-01T11:12:51;98385.13;;;5.88;100.00
11038;BME280;5572;49.540;11.932;2023-03-01T11:15:24;98376.41;;;5.99;100.00
11038;BME280;5572;49.540;11.932;2023-03-01T11:17:51;98395.63;;;6.51;100.00
11038;BME280;5572;49.540;11.932;2023-03-01T11:20:25;98387.78;;;6.25;100.00
11038;BME280;5572;49.540;11.932;2023-03-01T11:22:54;98437.97;;;5.24;100.00
11038;BME280;5572;49.540;11.932;2023-03-01T11:25:24;98435.91;;;5.90;100.00
11038;BME280;5572;49.540;11.932;2023-03-01T11:27:53;98399.13;;;6.58;100.00
11038;BME280;5572;49.540;11.932;2023-03-01T11:30:23;98436.09;;;5.95;100.00
11038;BME280;5572;49.540;11.932;2023-03-01T11:33:01;98435.78;;;6.15;100.00
11038;BME280;5572;49.540;11.932;2023-03-01T11:35:32;98418.91;;;5.52;100.00
11038;BME280;5572;49.540;11.932;2023-03-01T11:38:09;98385.97;;;6.19;100.00
11038;BME280;5572;49.540;11.932;2023-03-01T11:40:45;98439.13;;;6.66;100.00
11038;BME280;5572;49.540;11.932;2023-03-01T11:43:20;98416.97;;;6.15;100.00
11038;BME280;5572;49.540;11.932;2023-03-01T11:46:08;98430.88;;;6.37;100.00
11038;BME280;5572;49.540;11.932;2023-03-01T11:48:50;98328.09;;;6.90;100.00
11038;BME280;5572;49.540;11.932;2023-03-01T11:51:24;98374.59;;;6.48;100.00
11038;BME280;5572;49.540;11.932;2023-03-01T11:54:06;98378.66;;;6.82;100.00
11038;BME280;5572;49.540;11.932;2023-03-01T11:56:38;98434.38;;;6.68;100.00
11038;BME280;5572;49.540;11.932;2023-03-01T11:59:19;98383.09;;;6.45;100.00
11038;BME280;5572;49.540;11.932;2023-03-01T12:01:57;98407.72;;;7.09;100.00
11038;BME280;5572;49.540;11.932;2023-03-01T12:04:42;98426.50;;;6.42;100.00
11038;BME280;5572;49.540;11.932;2023-03-01T12:07:18;98364.28;;;6.45;100.00
11038;BME280;5572;49.540;11.932;2023-03-01T12:10:13;98337.38;;;7.12;100.00
11038;BME280;5572;49.540;11.932;2023-03-01T12:13:04;98381.97;;;7.19;100.00
11038;BME280;5572;49.540;11.932;2023-03-01T12:15:40;98415.47;;;6.99;100.00
11038;BME280;5572;49.540;11.932;2023-03-01T12:18:21;98355.19;;;6.71;100.00
11038;BME280;5572;49.540;11.932;2023-03-01T12:20:58;98445.03;;;6.50;100.00
11038;BME280;5572;49.540;11.932;2023-03-01T12:23:56;98455.63;;;6.70;100.00
11038;BME280;5572;49.540;11.932;2023-03-01T12:26:29;98388.56;;;6.57;100.00
11038;BME280;5572;49.540;11.932;2023-03-01T12:29:20;98354.31;;;7.48;100.00
11038;BME280;5572;49.540;11.932;2023-03-01T12:35:09;98365.06;;;6.94;100.00
11038;BME280;5572;49.540;11.932;2023-03-01T12:37:51;98342.16;;;7.28;100.00
11038;BME280;5572;49.540;11.932;2023-03-01T12:40:43;98375.53;;;7.20;100.00
11038;BME280;5572;49.540;11.932;2023-03-01T12:43:27;98331.63;;;7.08;100.00
11038;BME280;5572;49.540;11.932;2023-03-01T12:46:14;98344.03;;;7.09;100.00
11038;BME280;5572;49.540;11.932;2023-03-01T12:48:52;98349.56;;;7.32;100.00
11038;BME280;5572;49.540;11.932;2023-03-01T12:51:24;98302.50;;;7.53;100.00
11038;BME280;5572;49.540;11.932;2023-03-01T12:53:54;98358.19;;;7.16;100.00
11038;BME280;5572;49.540;11.932;2023-03-01T12:56:25;98341.22;;;7.52;100.00
11038;BME280;5572;49.540;11.932;2023-03-01T12:58:59;98362.09;;;7.20;100.00
11038;BME280;5572;49.540;11.932;2023-03-01T13:01:36;98363.56;;;6.81;100.00
11038;BME280;5572;49.540;11.932;2023-03-01T13:04:40;98354.59;;;7.04;100.00
11038;BME280;5572;49.540;11.932;2023-03-01T13:07:16;98326.09;;;7.21;100.00
11038;BME280;5572;49.540;11.932;2023-03-01T13:09:52;98369.41;;;7.49;100.00
11038;BME280;5572;49.540;11.932;2023-03-01T13:12:45;98367.53;;;7.14;100.00
11038;BME280;5572;49.540;11.932;2023-03-01T13:15:31;98351.13;;;7.04;100.00
11038;BME280;5572;49.540;11.932;2023-03-01T13:18:00;98362.97;;;6.96;100.00